Time,TemperatureF,DewpointF,PressureIn,WindDirection,WindDirectionDegrees,WindSpeedMPH,WindSpeedGustMPH,Humidity,HourlyPrecipIn,Conditions,Clouds,dailyrainin,SolarRadiationWatts/m^2,SoftwareType,DateUTC
2013-06-14 00:01:00,71.0,63.0,-100.00,NE,45,1.0,8.0,76,0.00,,,0.06,0.000000,,2013-06-14 04:01:00,
2013-06-14 00:33:00,70.0,59.0,-100.00,NE,47,4.0,9.0,67,0.00,,,0.06,0.000000,,2013-06-14 04:33:00,
2013-06-14 00:43:00,70.0,59.0,-100.00,NE,47,4.0,9.0,67,0.00,,,0.06,0.000000,,2013-06-14 04:43:00,
2013-06-14 00:53:00,70.0,59.0,-100.00,NE,47,4.0,9.0,67,0.00,,,0.06,0.000000,,2013-06-14 04:53:00,
2013-06-14 01:02:00,70.0,59.0,-100.00,NE,47,4.0,9.0,67,0.00,,,0.06,0.000000,,2013-06-14 05:02:00,
2013-06-14 01:34:00,68.0,58.0,-100.00,South,179,2.0,8.0,71,0.00,,,0.06,0.000000,,2013-06-14 05:34:00,
2013-06-14 01:43:00,68.0,58.0,-100.00,South,179,2.0,8.0,71,0.00,,,0.06,0.000000,,2013-06-14 05:43:00,
2013-06-14 01:52:00,68.0,58.0,-100.00,South,179,2.0,8.0,71,0.00,,,0.06,0.000000,,2013-06-14 05:52:00,
2013-06-14 02:02:00,68.0,58.0,-100.00,South,179,2.0,8.0,71,0.00,,,0.06,0.000000,,2013-06-14 06:02:00,
2013-06-14 02:33:00,65.0,59.0,-100.00,WSW,255,1.0,3.0,82,0.00,,,0.06,0.000000,,2013-06-14 06:33:00,
2013-06-14 02:43:00,65.0,59.0,-100.00,WSW,255,1.0,3.0,82,0.00,,,0.06,0.000000,,2013-06-14 06:43:00,
2013-06-14 02:52:00,65.0,59.0,-100.00,WSW,255,1.0,3.0,82,0.00,,,0.06,0.000000,,2013-06-14 06:52:00,
2013-06-14 03:02:00,65.0,59.0,-100.00,WSW,255,1.0,3.0,82,0.00,,,0.06,0.000000,,2013-06-14 07:02:00,
2013-06-14 03:33:00,62.0,59.0,-100.00,WSW,246,2.0,3.0,89,0.00,,,0.06,0.000000,,2013-06-14 07:33:00,
2013-06-14 03:43:00,62.0,59.0,-100.00,WSW,246,2.0,3.0,89,0.00,,,0.06,0.000000,,2013-06-14 07:43:00,
2013-06-14 03:53:00,62.0,59.0,-100.00,WSW,246,2.0,3.0,89,0.00,,,0.06,0.000000,,2013-06-14 07:53:00,
2013-06-14 04:02:00,62.0,59.0,-100.00,WSW,246,2.0,3.0,89,0.00,,,0.06,0.000000,,2013-06-14 08:02:00,
2013-06-14 04:33:00,60.0,58.0,-100.00,SW,235,1.0,2.0,94,0.00,,,0.06,0.000000,,2013-06-14 08:33:00,
2013-06-14 04:43:00,60.0,58.0,-100.00,SW,235,1.0,2.0,94,0.00,,,0.06,0.000000,,2013-06-14 08:43:00,
2013-06-14 04:53:00,60.0,58.0,-100.00,SW,235,1.0,2.0,94,0.00,,,0.06,0.000000,,2013-06-14 08:53:00,
2013-06-14 05:02:00,60.0,58.0,-100.00,SW,235,1.0,2.0,94,0.00,,,0.06,0.000000,,2013-06-14 09:02:00,
2013-06-14 05:33:00,59.0,58.0,-100.00,SSW,197,0.0,2.0,96,0.00,,,0.06,0.000000,,2013-06-14 09:33:00,
2013-06-14 05:43:00,59.0,58.0,-100.00,SSW,197,0.0,2.0,96,0.00,,,0.06,0.000000,,2013-06-14 09:43:00,
2013-06-14 05:53:00,59.0,58.0,-100.00,SSW,197,0.0,2.0,96,0.00,,,0.06,0.000000,,2013-06-14 09:53:00,
2013-06-14 06:01:00,59.0,58.0,-100.00,SSW,197,0.0,2.0,96,0.00,,,0.06,0.000000,,2013-06-14 10:01:00,
2013-06-14 06:34:00,59.0,58.0,-100.00,SSW,193,0.0,2.0,97,0.00,,,0.06,0.000000,,2013-06-14 10:34:00,
2013-06-14 06:44:00,59.0,58.0,-100.00,SSW,193,0.0,2.0,97,0.00,,,0.06,0.000000,,2013-06-14 10:44:00,
2013-06-14 06:53:00,59.0,58.0,-100.00,SSW,193,0.0,2.0,97,0.00,,,0.06,0.000000,,2013-06-14 10:53:00,
2013-06-14 07:02:00,59.0,58.0,-100.00,SSW,193,0.0,2.0,97,0.00,,,0.06,0.000000,,2013-06-14 11:02:00,
2013-06-14 07:43:00,62.0,60.0,-100.00,WSW,249,0.0,2.0,92,0.00,,,0.06,38.000000,,2013-06-14 11:43:00,
2013-06-14 07:52:00,62.0,60.0,-100.00,WSW,249,0.0,2.0,92,0.00,,,0.06,38.000000,,2013-06-14 11:52:00,
2013-06-14 08:02:00,62.0,60.0,-100.00,WSW,249,0.0,2.0,92,0.00,,,0.06,38.000000,,2013-06-14 12:02:00,
2013-06-14 08:43:00,68.0,61.0,-100.00,SW,234,2.0,3.0,79,0.00,,,0.06,178.000000,,2013-06-14 12:43:00,
2013-06-14 08:52:00,68.0,61.0,-100.00,SW,234,2.0,3.0,79,0.00,,,0.06,178.000000,,2013-06-14 12:52:00,
2013-06-14 09:02:00,68.0,61.0,-100.00,SW,234,2.0,3.0,79,0.00,,,0.06,178.000000,,2013-06-14 13:02:00,
2013-06-14 09:43:00,72.0,60.0,-100.00,SW,225,2.0,6.0,66,0.00,,,0.06,364.000000,,2013-06-14 13:43:00,
2013-06-14 09:53:00,72.0,60.0,-100.00,SW,225,2.0,6.0,66,0.00,,,0.06,364.000000,,2013-06-14 13:53:00,
2013-06-14 10:02:00,72.0,60.0,-100.00,SW,225,2.0,6.0,66,0.00,,,0.06,364.000000,,2013-06-14 14:02:00,
2013-06-14 10:34:00,74.0,59.0,-100.00,ESE,115,3.0,5.0,59,0.00,,,0.06,542.000000,,2013-06-14 14:34:00,
2013-06-14 10:43:00,74.0,59.0,-100.00,ESE,115,3.0,5.0,59,0.00,,,0.06,542.000000,,2013-06-14 14:43:00,
2013-06-14 10:52:00,74.0,59.0,-100.00,ESE,115,3.0,5.0,59,0.00,,,0.06,542.000000,,2013-06-14 14:52:00,
2013-06-14 11:02:00,74.0,59.0,-100.00,ESE,115,3.0,5.0,59,0.00,,,0.06,542.000000,,2013-06-14 15:02:00,
2013-06-14 11:33:00,77.0,60.0,-100.00,ENE,59,3.0,7.0,55,0.00,,,0.06,690.000000,,2013-06-14 15:33:00,
2013-06-14 11:44:00,77.0,60.0,-100.00,ENE,59,3.0,7.0,55,0.00,,,0.06,690.000000,,2013-06-14 15:44:00,
2013-06-14 11:53:00,77.0,60.0,-100.00,ENE,59,3.0,7.0,55,0.00,,,0.06,690.000000,,2013-06-14 15:53:00,
2013-06-14 12:01:00,77.0,60.0,-100.00,ENE,59,3.0,7.0,55,0.00,,,0.06,690.000000,,2013-06-14 16:01:00,
2013-06-14 12:33:00,78.0,58.0,-100.00,ENE,57,4.0,7.0,50,0.00,,,0.06,840.000000,,2013-06-14 16:33:00,
2013-06-14 12:43:00,78.0,58.0,-100.00,ENE,57,4.0,7.0,50,0.00,,,0.06,840.000000,,2013-06-14 16:43:00,
2013-06-14 12:53:00,78.0,58.0,-100.00,ENE,57,4.0,7.0,50,0.00,,,0.06,840.000000,,2013-06-14 16:53:00,
2013-06-14 13:02:00,78.0,58.0,-100.00,ENE,57,4.0,7.0,50,0.00,,,0.06,840.000000,,2013-06-14 17:02:00,
2013-06-14 13:34:00,79.0,56.0,-100.00,NE,49,5.0,10.0,46,0.00,,,0.06,915.000000,,2013-06-14 17:34:00,
2013-06-14 13:43:00,79.0,56.0,-100.00,NE,49,5.0,10.0,46,0.00,,,0.06,915.000000,,2013-06-14 17:43:00,
2013-06-14 13:53:00,79.0,56.0,-100.00,NE,49,5.0,10.0,46,0.00,,,0.06,915.000000,,2013-06-14 17:53:00,
2013-06-14 14:02:00,79.0,56.0,-100.00,NE,49,5.0,10.0,46,0.00,,,0.06,915.000000,,2013-06-14 18:02:00,
2013-06-14 14:33:00,80.0,57.0,-100.00,NE,55,6.0,12.0,45,0.00,,,0.06,900.000000,,2013-06-14 18:33:00,
2013-06-14 14:43:00,80.0,57.0,-100.00,NE,55,6.0,12.0,45,0.00,,,0.06,900.000000,,2013-06-14 18:43:00,
2013-06-14 14:52:00,80.0,57.0,-100.00,NE,55,6.0,12.0,45,0.00,,,0.06,900.000000,,2013-06-14 18:52:00,
2013-06-14 15:01:00,80.0,57.0,-100.00,NE,55,6.0,12.0,45,0.00,,,0.06,900.000000,,2013-06-14 19:01:00,
2013-06-14 15:33:00,80.0,57.0,-100.00,NE,55,5.0,15.0,45,0.00,,,0.05,762.000000,,2013-06-14 19:33:00,
2013-06-14 15:43:00,80.0,57.0,-100.00,NE,55,5.0,15.0,45,0.00,,,0.05,762.000000,,2013-06-14 19:43:00,
2013-06-14 15:53:00,80.0,57.0,-100.00,NE,55,5.0,15.0,45,0.00,,,0.05,762.000000,,2013-06-14 19:53:00,
2013-06-14 16:02:00,80.0,57.0,-100.00,NE,55,5.0,15.0,45,0.00,,,0.05,762.000000,,2013-06-14 20:02:00,
2013-06-14 16:43:00,82.0,57.0,-100.00,NE,40,4.0,10.0,42,0.00,,,-99.99,773.000000,,2013-06-14 20:43:00,
2013-06-14 16:53:00,82.0,57.0,-100.00,NE,40,4.0,10.0,42,0.00,,,-99.99,773.000000,,2013-06-14 20:53:00,
2013-06-14 17:02:00,82.0,57.0,-100.00,NE,40,4.0,10.0,42,0.00,,,-99.99,773.000000,,2013-06-14 21:02:00,
2013-06-14 17:34:00,81.0,54.0,-100.00,ENE,57,5.0,12.0,39,0.00,,,0.00,668.000000,,2013-06-14 21:34:00,
2013-06-14 17:43:00,81.0,54.0,-100.00,ENE,57,5.0,12.0,39,0.00,,,0.00,668.000000,,2013-06-14 21:43:00,
2013-06-14 17:52:00,81.0,54.0,-100.00,ENE,57,5.0,12.0,39,0.00,,,0.00,668.000000,,2013-06-14 21:52:00,
2013-06-14 18:02:00,81.0,54.0,-100.00,ENE,57,5.0,12.0,39,0.00,,,0.00,668.000000,,2013-06-14 22:02:00,
2013-06-14 18:33:00,81.0,55.0,-100.00,NE,47,4.0,11.0,41,0.00,,,0.00,479.000000,,2013-06-14 22:33:00,
2013-06-14 18:43:00,81.0,55.0,-100.00,NE,47,4.0,11.0,41,0.00,,,0.00,479.000000,,2013-06-14 22:43:00,
2013-06-14 18:53:00,81.0,55.0,-100.00,NE,47,4.0,11.0,41,0.00,,,0.00,479.000000,,2013-06-14 22:53:00,
2013-06-14 19:02:00,81.0,55.0,-100.00,NE,47,4.0,11.0,41,0.00,,,0.00,479.000000,,2013-06-14 23:02:00,
2013-06-14 19:43:00,80.0,55.0,-100.00,NE,39,3.0,9.0,43,0.00,,,0.00,281.000000,,2013-06-14 23:43:00,
2013-06-14 19:52:00,80.0,55.0,-100.00,NE,39,3.0,9.0,43,0.00,,,0.00,281.000000,,2013-06-14 23:52:00,
2013-06-14 20:01:00,80.0,55.0,-100.00,NE,39,3.0,9.0,43,0.00,,,0.00,281.000000,,2013-06-15 00:01:00,
2013-06-14 20:34:00,76.0,55.0,-100.00,NNW,335,1.0,8.0,49,0.00,,,0.00,56.000000,,2013-06-15 00:34:00,
2013-06-14 20:43:00,76.0,55.0,-100.00,NNW,335,1.0,8.0,49,0.00,,,0.00,56.000000,,2013-06-15 00:43:00,
2013-06-14 20:53:00,76.0,55.0,-100.00,NNW,335,1.0,8.0,49,0.00,,,0.00,56.000000,,2013-06-15 00:53:00,
2013-06-14 21:01:00,76.0,55.0,-100.00,NNW,335,1.0,8.0,49,0.00,,,0.00,56.000000,,2013-06-15 01:01:00,
2013-06-14 21:33:00,72.0,58.0,-100.00,SW,235,0.0,4.0,61,0.00,,,0.00,10.000000,,2013-06-15 01:33:00,
2013-06-14 21:43:00,72.0,58.0,-100.00,SW,235,0.0,4.0,61,0.00,,,0.00,10.000000,,2013-06-15 01:43:00,
2013-06-14 21:54:00,72.0,58.0,-100.00,SW,235,0.0,4.0,61,0.00,,,0.00,10.000000,,2013-06-15 01:54:00,
2013-06-14 22:02:00,72.0,58.0,-100.00,SW,235,0.0,4.0,61,0.00,,,0.00,10.000000,,2013-06-15 02:02:00,
2013-06-14 22:43:00,68.0,60.0,-100.00,SSW,194,0.0,2.0,76,0.00,,,0.00,0.000000,,2013-06-15 02:43:00,
2013-06-14 22:53:00,68.0,60.0,-100.00,SSW,194,0.0,2.0,76,0.00,,,0.00,0.000000,,2013-06-15 02:53:00,
2013-06-14 23:01:00,68.0,60.0,-100.00,SSW,194,0.0,2.0,76,0.00,,,0.00,0.000000,,2013-06-15 03:01:00,
2013-06-14 23:44:00,65.0,60.0,-100.00,SSW,204,1.0,2.0,83,0.00,,,0.00,0.000000,,2013-06-15 03:44:00,
2013-06-14 23:53:00,65.0,60.0,-100.00,SSW,204,1.0,2.0,83,0.00,,,0.00,0.000000,,2013-06-15 03:53:00,